Terminal Aerodrome Forecast
Issued by NWS

Home | Current Version | Previous Version | Text Only | Print | Product List | Glossary On
Versions: 1 2 3 4 5 6 7 8 9 10 11 12 13 14 15 16
850
FTUS43 KMQT 190901 AAA
TAFCMX
TAF AMD
KCMX 190901Z 1909/2006 20003KT P6SM FEW250
     FM191300 20004KT P6SM FEW150
     FM200200 20003KT P6SM BKN040=

USA.gov is the U.S. government's official web portal to all federal, state and local government web resources and services.